Time;durP1;ratioP1;P1;durP2;ratioP2;P2;SDS_P1;SDS_P2;PMS_P1;PMS_P2;Temp;Humidity;BMP_temperature;BMP_pressure;BME280_temperature;BME280_humidity;BME280_pressure;Samples;Min_cycle;Max_cycle;Signal;HPM_P1;HPM_P2
2022/09/28 00:01:00;;;;;;;0.60;0.60;;;;;;;18.76;100.00;98339.66;5040768;28;20278;-75
2022/09/28 00:03:28;;;;;;;0.40;0.40;;;;;;;18.78;100.00;98334.31;5041448;28;20668;-74
2022/09/28 00:06:01;;;;;;;0.57;0.57;;;;;;;18.39;100.00;98296.75;5036951;28;20202;-75
2022/09/28 00:08:29;;;;;;;0.60;0.60;;;;;;;18.62;100.00;98332.13;5031527;28;20194;-75
2022/09/28 00:10:57;;;;;;;0.60;0.60;;;;;;;18.60;100.00;98325.41;5036008;28;20208;-75
2022/09/28 00:13:24;;;;;;;0.60;0.60;;;;;;;18.72;100.00;98334.81;5039477;28;20710;-75
2022/09/28 00:16:02;;;;;;;0.40;0.40;;;;;;;18.74;100.00;98338.13;5043184;28;20189;-75
2022/09/28 00:18:31;;;;;;;0.30;0.30;;;;;;;18.65;100.00;98321.50;5046364;28;20200;-75
2022/09/28 00:21:03;;;;;;;0.40;0.40;;;;;;;18.46;100.00;98302.28;5042053;28;20209;-75
2022/09/28 00:23:30;;;;;;;0.50;0.50;;;;;;;18.58;100.00;98320.34;5037000;28;20196;-74
2022/09/28 00:26:01;;;;;;;0.40;0.40;;;;;;;18.60;100.00;98313.25;5032346;28;20268;-75
2022/09/28 00:28:28;;;;;;;0.57;0.57;;;;;;;18.63;100.00;98315.63;5031267;28;20197;-75
2022/09/28 00:30:56;;;;;;;0.50;0.50;;;;;;;18.63;100.00;98320.81;5036672;28;20194;-75
2022/09/28 00:33:23;;;;;;;0.37;0.37;;;;;;;18.54;100.00;98313.75;5037949;28;20204;-75
2022/09/28 00:35:57;;;;;;;0.57;0.57;;;;;;;18.42;100.00;98314.69;5037043;28;20283;-75
2022/09/28 00:38:27;;;;;;;0.50;0.50;;;;;;;18.48;100.00;98310.78;5035024;28;20695;-75
2022/09/28 00:40:55;;;;;;;0.40;0.40;;;;;;;18.53;100.00;98319.88;5043605;28;20228;-75
2022/09/28 00:43:24;;;;;;;0.60;0.60;;;;;;;18.46;100.00;98308.31;5046062;28;20232;-75
2022/09/28 00:45:58;;;;;;;0.50;0.50;;;;;;;18.47;100.00;98317.75;5033307;28;20186;-75
2022/09/28 00:48:31;;;;;;;0.43;0.43;;;;;;;18.48;100.00;98321.97;5036338;28;20296;-75
2022/09/28 00:51:04;;;;;;;0.40;0.40;;;;;;;18.46;100.00;98323.03;5031226;28;20680;-76
2022/09/28 00:53:35;;;;;;;0.70;0.70;;;;;;;18.31;100.00;98310.34;5039078;28;20572;-75
2022/09/28 00:56:06;;;;;;;0.43;0.43;;;;;;;18.29;100.00;98321.78;5031925;28;20197;-76
2022/09/28 00:58:39;;;;;;;0.50;0.50;;;;;;;18.24;100.00;98308.34;5041177;28;20193;-75
2022/09/28 01:01:06;;;;;;;0.50;0.50;;;;;;;18.20;100.00;98312.13;5039209;28;20221;-76
2022/09/28 01:03:34;;;;;;;0.60;0.60;;;;;;;18.20;100.00;98301.75;5032904;28;20642;-75
2022/09/28 01:06:05;;;;;;;0.40;0.40;;;;;;;18.19;100.00;98300.13;5033391;28;20197;-75
2022/09/28 01:08:34;;;;;;;0.60;0.60;;;;;;;18.21;100.00;98303.41;5038536;28;20197;-75
2022/09/28 01:11:02;;;;;;;0.50;0.50;;;;;;;18.19;100.00;98305.31;5032610;28;20194;-75
2022/09/28 01:13:32;;;;;;;0.40;0.40;;;;;;;18.15;100.00;98306.50;5038235;28;20340;-75
2022/09/28 01:16:07;;;;;;;0.40;0.40;;;;;;;18.06;100.00;98304.63;5034560;28;20198;-75
2022/09/28 01:18:41;;;;;;;0.50;0.50;;;;;;;18.01;100.00;98301.53;5037204;28;20204;-75
2022/09/28 01:21:14;;;;;;;0.70;0.70;;;;;;;18.00;100.00;98297.28;5033150;28;20260;-75
2022/09/28 01:24:20;;;;;;;0.40;0.40;;;;;;;17.95;100.00;98296.84;5037288;28;20490;-75
2022/09/28 01:27:05;;;;;;;0.33;0.33;;;;;;;17.96;100.00;98303.69;5041075;28;20217;-75
2022/09/28 01:29:52;;;;;;;0.60;0.60;;;;;;;17.94;100.00;98308.97;5040930;28;20262;-75
2022/09/28 01:32:31;;;;;;;0.50;0.50;;;;;;;17.86;100.00;98311.34;5036006;28;20201;-76
2022/09/28 01:35:03;;;;;;;0.60;0.60;;;;;;;17.89;100.00;98307.69;5042124;28;20268;-75
2022/09/28 01:37:39;;;;;;;0.60;0.60;;;;;;;17.85;100.00;98304.50;5035924;28;20238;-74
2022/09/28 01:40:10;;;;;;;0.50;0.50;;;;;;;17.76;100.00;98303.44;5036748;28;20182;-75
2022/09/28 01:42:41;;;;;;;0.47;0.47;;;;;;;17.74;100.00;98300.13;5036011;28;20185;-75
2022/09/28 01:45:16;;;;;;;0.47;0.47;;;;;;;17.57;100.00;98295.44;5037146;28;20196;-75
2022/09/28 01:47:47;;;;;;;0.47;0.47;;;;;;;17.56;100.00;98304.13;5037909;28;20200;-75
2022/09/28 01:50:20;;;;;;;0.40;0.40;;;;;;;17.60;100.00;98302.13;5038918;28;20194;-75
2022/09/28 01:52:52;;;;;;;0.50;0.50;;;;;;;17.64;100.00;98308.75;5038210;28;20193;-75
2022/09/28 01:55:28;;;;;;;0.40;0.40;;;;;;;17.59;100.00;98305.66;5040651;28;20242;-75
2022/09/28 01:58:02;;;;;;;0.60;0.60;;;;;;;17.50;100.00;98296.81;5046962;28;20227;-75
2022/09/28 02:00:29;;;;;;;0.47;0.47;;;;;;;17.46;100.00;98297.97;5040570;28;20619;-75
2022/09/28 02:03:02;;;;;;;0.50;0.50;;;;;;;17.43;100.00;98295.59;5038494;28;20194;-75
2022/09/28 02:05:33;;;;;;;0.77;0.77;;;;;;;17.40;100.00;98285.47;5042885;28;20220;-75
2022/09/28 02:08:05;;;;;;;0.50;0.50;;;;;;;17.35;100.00;98297.94;5042626;28;20731;-75
2022/09/28 02:10:40;;;;;;;0.70;0.70;;;;;;;17.15;100.00;98272.72;5045555;28;20201;-76
2022/09/28 02:13:14;;;;;;;0.40;0.40;;;;;;;17.35;100.00;98302.31;5046044;28;20553;-77
2022/09/28 02:15:46;;;;;;;0.50;0.50;;;;;;;17.31;100.00;98301.72;5041965;28;20215;-75
2022/09/28 02:18:13;;;;;;;0.30;0.30;;;;;;;17.31;100.00;98301.72;5049774;28;20213;-75
2022/09/28 02:20:42;;;;;;;0.60;0.60;;;;;;;17.29;100.00;98304.41;5040438;28;20240;-75
2022/09/28 02:23:10;;;;;;;0.50;0.50;;;;;;;17.31;100.00;98301.72;5041136;28;20190;-75
2022/09/28 02:25:42;;;;;;;0.60;0.60;;;;;;;17.26;100.00;98294.28;5038044;28;20680;-76
2022/09/28 02:28:13;;;;;;;0.40;0.40;;;;;;;17.25;100.00;98302.19;5035940;28;20609;-75
2022/09/28 02:30:42;;;;;;;0.50;0.50;;;;;;;17.20;100.00;98304.25;5033967;28;20259;-75
2022/09/28 02:33:12;;;;;;;0.43;0.43;;;;;;;17.12;100.00;98301.44;5034252;28;20204;-75
2022/09/28 02:35:41;;;;;;;0.50;0.50;;;;;;;17.12;100.00;98317.81;5038232;28;20201;-75
2022/09/28 02:38:10;;;;;;;0.50;0.50;;;;;;;17.02;100.00;98300.47;5046150;28;20197;-75
2022/09/28 02:40:37;;;;;;;0.47;0.47;;;;;;;17.09;100.00;98302.47;5039337;28;20217;-75
2022/09/28 02:43:14;;;;;;;0.40;0.40;;;;;;;17.07;100.00;98303.53;5041596;28;20208;-75
2022/09/28 02:46:00;;;;;;;0.40;0.40;;;;;;;17.05;100.00;98295.88;5035161;28;20189;-75
2022/09/28 02:48:47;;;;;;;0.60;0.60;;;;;;;17.03;100.00;98312.44;5033241;28;20211;-75
2022/09/28 02:51:23;;;;;;;0.50;0.50;;;;;;;17.05;100.00;98323.53;5035385;28;20228;-75
2022/09/28 02:54:06;;;;;;;0.40;0.40;;;;;;;17.04;100.00;98329.66;5037602;28;20247;-76
2022/09/28 02:56:48;;;;;;;0.50;0.50;;;;;;;16.95;100.00;98325.16;5050938;28;20639;-75
2022/09/28 02:59:27;;;;;;;0.50;0.50;;;;;;;16.92;100.00;98325.38;5043789;28;20185;-75
2022/09/28 03:02:02;;;;;;;0.60;0.60;;;;;;;16.88;100.00;98326.53;5034911;28;20224;-75
2022/09/28 03:04:37;;;;;;;0.40;0.40;;;;;;;16.75;100.00;98314.47;5037060;28;20228;-75
2022/09/28 03:07:10;;;;;;;0.60;0.60;;;;;;;16.73;100.00;98315.53;5046344;28;20291;-75
2022/09/28 03:09:43;;;;;;;0.50;0.50;;;;;;;16.69;100.00;98309.75;5040081;28;20217;-74
2022/09/28 03:12:13;;;;;;;0.60;0.60;;;;;;;16.69;100.00;98320.09;5034356;28;20194;-75
2022/09/28 03:14:41;;;;;;;0.40;0.40;;;;;;;16.63;100.00;98320.53;5041740;28;20237;-75
2022/09/28 03:17:08;;;;;;;0.50;0.50;;;;;;;16.55;100.00;98302.13;5047837;28;20184;-75
2022/09/28 03:19:36;;;;;;;0.60;0.60;;;;;;;16.56;100.00;98319.31;5034241;28;20740;-75
2022/09/28 03:22:04;;;;;;;0.60;0.60;;;;;;;16.48;100.00;98316.41;5036365;28;20290;-75
2022/09/28 03:24:31;;;;;;;0.60;0.60;;;;;;;16.49;100.00;98312.91;5039413;28;20244;-75
2022/09/28 03:26:58;;;;;;;0.50;0.50;;;;;;;16.49;100.00;98312.06;5039706;28;20284;-75
2022/09/28 03:29:25;;;;;;;0.60;0.60;;;;;;;16.52;100.00;98320.44;5033515;28;20284;-75
2022/09/28 03:31:53;;;;;;;0.50;0.50;;;;;;;16.50;100.00;98318.91;5032976;28;20244;-75
2022/09/28 03:34:20;;;;;;;0.40;0.40;;;;;;;16.43;100.00;98320.28;5037599;28;20289;-75
2022/09/28 03:36:47;;;;;;;0.50;0.50;;;;;;;16.37;100.00;98318.94;5043168;28;20580;-75
2022/09/28 03:39:14;;;;;;;0.40;0.40;;;;;;;16.36;100.00;98326.81;5035236;28;20692;-75
2022/09/28 03:41:41;;;;;;;0.60;0.60;;;;;;;16.39;100.00;98321.41;5033867;28;20295;-75
2022/09/28 03:44:08;;;;;;;0.50;0.50;;;;;;;16.41;100.00;98329.91;5031789;28;20704;-75
2022/09/28 03:46:35;;;;;;;0.90;0.90;;;;;;;16.38;100.00;98330.94;5032109;28;20230;-75
2022/09/28 03:49:04;;;;;;;0.40;0.40;;;;;;;16.36;100.00;98321.63;5042858;28;20224;-75
2022/09/28 03:51:31;;;;;;;0.40;0.40;;;;;;;16.25;100.00;98330.97;5041487;28;20204;-75
2022/09/28 03:53:58;;;;;;;0.50;0.50;;;;;;;16.20;100.00;98337.41;5035637;28;20220;-76
2022/09/28 03:56:26;;;;;;;0.47;0.47;;;;;;;16.16;100.00;98335.94;5046379;28;20987;-76
2022/09/28 03:58:53;;;;;;;0.50;0.50;;;;;;;16.17;100.00;98337.63;5037037;28;20194;-75
2022/09/28 04:01:20;;;;;;;0.50;0.50;;;;;;;16.17;100.00;98333.28;5042767;28;20236;-75
2022/09/28 04:03:53;;;;;;;0.50;0.50;;;;;;;16.11;100.00;98333.72;5038082;28;20229;-75
2022/09/28 04:06:21;;;;;;;0.60;0.60;;;;;;;16.11;100.00;98332.88;5037195;28;20208;-75
2022/09/28 04:08:48;;;;;;;0.50;0.50;;;;;;;16.05;100.00;98338.47;5032882;28;20239;-75
2022/09/28 04:11:15;;;;;;;0.40;0.40;;;;;;;16.07;100.00;98341.78;5033453;28;20218;-75
2022/09/28 04:13:42;;;;;;;0.50;0.50;;;;;;;16.07;100.00;98346.94;5040456;28;20275;-76
2022/09/28 04:16:10;;;;;;;0.47;0.47;;;;;;;16.00;100.00;98345.72;5042418;28;20181;-75
2022/09/28 04:18:38;;;;;;;0.50;0.50;;;;;;;15.88;100.00;98362.06;5046609;28;20193;-75
2022/09/28 04:21:07;;;;;;;0.60;0.60;;;;;;;15.94;100.00;98369.38;5039955;28;20320;-75
2022/09/28 04:23:38;;;;;;;0.40;0.40;;;;;;;15.93;100.00;98372.94;5039818;28;20219;-79
2022/09/28 04:26:07;;;;;;;0.40;0.40;;;;;;;15.86;100.00;98371.69;5043053;28;20197;-74
2022/09/28 04:31:20;;;;;;;0.60;0.60;;;;;;;15.86;100.00;98363.94;5045784;28;20199;-74
2022/09/28 04:33:47;;;;;;;0.50;0.50;;;;;;;15.85;100.00;98368.28;5040065;28;20584;-74
2022/09/28 04:36:14;;;;;;;0.50;0.50;;;;;;;15.81;100.00;98365.97;5035892;28;20287;-74
2022/09/28 04:38:43;;;;;;;0.47;0.47;;;;;;;15.73;100.00;98367.31;5046268;28;20301;-74
2022/09/28 04:41:10;;;;;;;0.70;0.70;;;;;;;15.75;100.00;98362.91;5037585;28;20205;-74
2022/09/28 04:43:37;;;;;;;0.57;0.57;;;;;;;15.74;100.00;98366.41;5030546;28;20202;-74
2022/09/28 04:46:05;;;;;;;0.50;0.50;;;;;;;15.72;100.00;98368.28;5036007;28;20277;-74
2022/09/28 04:48:32;;;;;;;0.43;0.43;;;;;;;15.74;100.00;98360.41;5038851;28;20216;-74
2022/09/28 04:51:00;;;;;;;0.50;0.50;;;;;;;15.75;100.00;98365.47;5038705;28;20193;-74
2022/09/28 04:53:28;;;;;;;0.50;0.50;;;;;;;15.74;100.00;98369.00;5040366;28;20254;-74
2022/09/28 04:55:58;;;;;;;0.50;0.50;;;;;;;15.77;100.00;98371.38;5032713;28;20288;-74
2022/09/28 04:58:26;;;;;;;0.50;0.50;;;;;;;15.72;100.00;98372.59;5041334;28;20212;-74
2022/09/28 05:00:57;;;;;;;0.40;0.40;;;;;;;15.66;100.00;98399.69;5036100;28;20197;-74
2022/09/28 05:03:24;;;;;;;0.40;0.40;;;;;;;15.63;100.00;98394.72;5041207;28;20303;-75
2022/09/28 05:05:51;;;;;;;0.47;0.47;;;;;;;15.65;100.00;98397.19;5041160;28;20303;-73
2022/09/28 05:08:18;;;;;;;0.50;0.50;;;;;;;15.72;100.00;98394.13;5043597;28;20280;-74
2022/09/28 05:10:45;;;;;;;0.47;0.47;;;;;;;15.79;100.00;98391.94;5040547;28;20197;-74
2022/09/28 05:13:17;;;;;;;0.50;0.50;;;;;;;15.86;100.00;98385.44;5042468;28;20219;-76
2022/09/28 05:15:44;;;;;;;0.50;0.50;;;;;;;15.96;100.00;98391.63;5038909;28;20209;-76
2022/09/28 05:18:12;;;;;;;0.50;0.50;;;;;;;16.09;100.00;98395.00;5044590;28;20232;-73
2022/09/28 05:20:43;;;;;;;0.43;0.43;;;;;;;16.23;100.00;98397.50;5040871;28;20694;-74
2022/09/28 05:23:11;;;;;;;0.50;0.50;;;;;;;16.40;100.00;98404.09;5037372;28;20224;-74
2022/09/28 05:25:38;;;;;;;0.50;0.50;;;;;;;16.59;100.00;98407.06;5035289;28;20221;-74
2022/09/28 05:28:05;;;;;;;0.43;0.43;;;;;;;16.80;100.00;98400.38;5036862;28;20208;-74
2022/09/28 05:30:35;;;;;;;0.93;0.93;;;;;;;17.05;100.00;98398.63;5036304;28;20205;-75
2022/09/28 05:33:02;;;;;;;0.40;0.40;;;;;;;17.33;100.00;98401.69;5035997;28;20228;-75
2022/09/28 05:35:29;;;;;;;0.60;0.60;;;;;;;17.58;100.00;98405.91;5038958;28;20284;-74
2022/09/28 05:37:57;;;;;;;0.73;0.73;;;;;;;17.72;100.00;98392.75;5042266;28;20232;-74
2022/09/28 05:40:24;;;;;;;0.40;0.40;;;;;;;17.90;100.00;98415.66;5045685;28;20288;-74
2022/09/28 05:42:51;;;;;;;0.43;0.43;;;;;;;18.01;100.00;98420.81;5044633;28;20645;-74
2022/09/28 05:45:17;;;;;;;0.50;0.50;;;;;;;18.07;100.00;98433.31;5045010;28;20229;-75
2022/09/28 05:47:46;;;;;;;0.30;0.30;;;;;;;18.17;100.00;98421.31;5034603;28;20759;-75
2022/09/28 05:50:14;;;;;;;0.50;0.50;;;;;;;18.36;100.00;98424.97;5038510;28;20277;-74
2022/09/28 05:52:43;;;;;;;0.40;0.40;;;;;;;18.44;100.00;98434.78;5039399;28;20229;-75
2022/09/28 05:55:10;;;;;;;0.70;0.70;;;;;;;18.48;100.00;98423.19;5037763;28;20581;-74
2022/09/28 05:57:37;;;;;;;0.40;0.40;;;;;;;18.53;99.28;98430.66;5037284;28;20201;-74
2022/09/28 06:00:06;;;;;;;0.60;0.60;;;;;;;18.60;99.63;98430.06;5042519;28;20204;-74
2022/09/28 06:02:33;;;;;;;0.60;0.60;;;;;;;18.64;99.18;98418.47;5036213;28;20224;-75
2022/09/28 06:05:02;;;;;;;0.40;0.40;;;;;;;18.77;99.26;98424.38;5034095;28;20312;-74
2022/09/28 06:07:29;;;;;;;0.40;0.40;;;;;;;18.86;99.00;98434.03;5034894;28;20197;-74
2022/09/28 06:09:56;;;;;;;0.40;0.40;;;;;;;19.02;99.27;98438.00;5036728;28;20198;-75
2022/09/28 06:12:24;;;;;;;0.50;0.50;;;;;;;19.06;98.83;98442.03;5043266;28;20205;-75
2022/09/28 06:14:51;;;;;;;0.30;0.30;;;;;;;19.15;99.39;98446.47;5040991;28;20289;-75
2022/09/28 06:17:18;;;;;;;0.43;0.43;;;;;;;19.17;98.21;98448.00;5041939;28;20214;-75
2022/09/28 06:19:46;;;;;;;0.40;0.40;;;;;;;19.25;96.75;98442.19;5048964;28;20494;-74
2022/09/28 06:22:14;;;;;;;0.50;0.50;;;;;;;19.39;96.87;98436.69;5044014;28;20642;-74
2022/09/28 06:24:41;;;;;;;0.50;0.50;;;;;;;19.53;94.86;98431.22;5045580;28;20205;-76
2022/09/28 06:27:08;;;;;;;0.43;0.43;;;;;;;19.67;93.16;98425.75;5039110;28;20285;-73
2022/09/28 06:29:35;;;;;;;0.43;0.43;;;;;;;19.73;92.67;98417.41;5042929;28;20638;-74
2022/09/28 06:32:02;;;;;;;0.40;0.40;;;;;;;19.93;92.47;98434.78;5046738;28;20267;-74
2022/09/28 06:34:29;;;;;;;0.67;0.67;;;;;;;20.14;92.02;98432.16;5035909;28;20250;-73
2022/09/28 06:36:57;;;;;;;0.40;0.40;;;;;;;20.32;89.21;98442.84;5034731;28;20254;-72
2022/09/28 06:39:25;;;;;;;0.40;0.40;;;;;;;20.49;88.69;98447.41;5038134;28;20744;-73
2022/09/28 06:41:52;;;;;;;0.40;0.40;;;;;;;20.57;87.49;98444.16;5042864;28;20249;-73
2022/09/28 06:44:19;;;;;;;0.50;0.50;;;;;;;20.71;87.59;98439.38;5038029;28;20198;-73
2022/09/28 06:46:46;;;;;;;0.40;0.40;;;;;;;20.89;87.88;98434.38;5034945;28;20187;-74
2022/09/28 06:49:13;;;;;;;0.40;0.40;;;;;;;20.99;88.82;98444.81;5043346;28;20203;-73
2022/09/28 06:51:40;;;;;;;0.43;0.43;;;;;;;21.06;89.34;98453.75;5040264;28;20220;-73
2022/09/28 06:54:07;;;;;;;0.40;0.40;;;;;;;21.11;89.22;98454.19;5046497;28;20196;-72
2022/09/28 06:56:35;;;;;;;0.33;0.33;;;;;;;21.14;87.61;98449.53;5044437;28;20201;-72
2022/09/28 06:59:03;;;;;;;0.40;0.40;;;;;;;21.27;87.99;98434.44;5040978;28;20335;-75
2022/09/28 07:01:31;;;;;;;0.50;0.50;;;;;;;21.39;87.58;98432.50;5044514;28;20217;-73
2022/09/28 07:04:00;;;;;;;0.50;0.50;;;;;;;21.51;87.38;98428.81;5041797;28;20722;-73
2022/09/28 07:06:29;;;;;;;0.40;0.40;;;;;;;21.68;85.14;98432.53;5036469;28;20208;-73
2022/09/28 07:08:58;;;;;;;1.80;0.57;;;;;;;21.74;84.91;98438.00;5040274;28;20201;-73
2022/09/28 07:11:27;;;;;;;0.30;0.30;;;;;;;21.75;85.24;98423.97;5045171;28;20211;-73
2022/09/28 07:13:56;;;;;;;0.40;0.40;;;;;;;21.98;85.48;98429.72;5043633;28;20197;-73
2022/09/28 07:16:23;;;;;;;0.40;0.40;;;;;;;22.21;84.75;98432.81;5043730;28;20201;-72
2022/09/28 07:18:50;;;;;;;0.40;0.40;;;;;;;22.41;83.43;98431.78;5041889;28;20205;-73
2022/09/28 07:21:17;;;;;;;0.20;0.20;;;;;;;22.53;82.58;98425.41;5034490;28;20209;-72
2022/09/28 07:23:44;;;;;;;0.33;0.33;;;;;;;22.66;81.48;98436.38;5040016;28;20260;-73
2022/09/28 07:26:11;;;;;;;0.20;0.20;;;;;;;22.70;81.17;98432.50;5042965;28;20209;-73
2022/09/28 07:28:40;;;;;;;0.30;0.30;;;;;;;22.86;81.29;98431.88;5041914;28;20220;-75
2022/09/28 07:31:09;;;;;;;0.40;0.40;;;;;;;23.02;78.79;98435.47;5041514;28;20588;-74
2022/09/28 07:33:36;;;;;;;0.30;0.30;;;;;;;23.14;78.43;98424.78;5034016;28;20197;-76
2022/09/28 07:36:05;;;;;;;0.20;0.20;;;;;;;23.34;79.08;98431.53;5041569;28;20296;-75
2022/09/28 07:38:32;;;;;;;0.30;0.30;;;;;;;23.50;77.35;98431.69;5047600;28;20220;-75
2022/09/28 07:41:12;;;;;;;0.40;0.40;;;;;;;23.65;76.80;98432.78;5040355;28;20205;-75
2022/09/28 07:43:40;;;;;;;0.40;0.40;;;;;;;23.82;76.28;98429.31;5045044;28;20781;-76
2022/09/28 07:46:10;;;;;;;0.30;0.30;;;;;;;23.71;75.33;98424.34;5042434;28;20197;-75
2022/09/28 07:48:39;;;;;;;0.30;0.30;;;;;;;24.01;76.25;98430.91;5036081;28;20255;-75
2022/09/28 07:51:08;;;;;;;0.43;0.43;;;;;;;24.18;76.23;98439.72;5041169;28;20188;-75
2022/09/28 07:53:37;;;;;;;0.30;0.30;;;;;;;24.42;75.76;98432.84;5042001;28;20778;-75
2022/09/28 07:56:06;;;;;;;0.37;0.37;;;;;;;24.65;74.90;98433.09;5039659;28;20224;-75
2022/09/28 07:58:34;;;;;;;0.20;0.20;;;;;;;24.89;73.00;98427.13;5047065;28;20232;-75
2022/09/28 08:01:05;;;;;;;0.30;0.30;;;;;;;25.04;72.06;98425.53;5042538;28;20219;-75
2022/09/28 08:03:35;;;;;;;0.27;0.27;;;;;;;24.88;70.42;98428.91;5041177;28;20259;-75
2022/09/28 08:06:05;;;;;;;0.37;0.37;;;;;;;25.03;69.93;98440.44;5040408;28;20197;-75
2022/09/28 08:08:42;;;;;;;0.30;0.30;;;;;;;24.68;69.39;98398.72;5039815;28;20332;-75
2022/09/28 08:11:10;;;;;;;0.30;0.30;;;;;;;25.05;69.19;98442.91;5039680;28;20665;-76
2022/09/28 08:13:37;;;;;;;0.30;0.30;;;;;;;25.02;69.65;98441.41;5049218;28;20567;-75
2022/09/28 08:16:06;;;;;;;0.30;0.30;;;;;;;25.23;70.03;98448.84;5038321;28;20593;-77
2022/09/28 08:18:35;;;;;;;0.30;0.30;;;;;;;25.44;67.94;98445.75;5031502;28;20604;-75
2022/09/28 08:23:48;;;;;;;0.20;0.20;;;;;;;25.29;68.19;98415.91;5045275;28;20333;-76
2022/09/28 08:26:16;;;;;;;0.23;0.23;;;;;;;25.67;68.91;98440.69;5044169;28;20209;-75
2022/09/28 08:28:43;;;;;;;0.30;0.30;;;;;;;25.75;67.61;98436.25;5037568;28;20242;-76
2022/09/28 08:31:11;;;;;;;0.30;0.30;;;;;;;25.75;68.27;98449.38;5040087;28;20199;-75
2022/09/28 08:33:40;;;;;;;0.30;0.30;;;;;;;25.61;68.88;98446.59;5041363;28;20193;-75
2022/09/28 08:36:09;;;;;;;0.20;0.20;;;;;;;25.34;69.11;98448.53;5046556;28;20197;-76
2022/09/28 08:38:36;;;;;;;0.27;0.27;;;;;;;25.33;68.63;98446.06;5045044;28;20209;-75
2022/09/28 08:41:11;;;;;;;0.20;0.20;;;;;;;25.34;68.46;98439.81;5037051;28;20280;-76
2022/09/28 08:43:53;;;;;;;0.20;0.20;;;;;;;25.54;69.51;98443.81;5042703;28;21846;-75
2022/09/28 08:46:24;;;;;;;0.20;0.20;;;;;;;25.79;69.94;98442.81;5042867;28;20288;-74
2022/09/28 08:49:02;;;;;;;0.20;0.20;;;;;;;26.04;70.11;98441.78;5032605;28;20205;-75
2022/09/28 08:51:35;;;;;;;0.20;0.20;;;;;;;26.32;68.80;98442.28;5040585;28;20193;-76
2022/09/28 08:54:06;;;;;;;0.20;0.20;;;;;;;26.49;66.30;98445.66;5043514;28;20220;-75
2022/09/28 08:56:41;;;;;;;0.50;0.50;;;;;;;26.44;65.69;98440.09;5039314;28;20206;-75
2022/09/28 08:59:14;;;;;;;0.20;0.20;;;;;;;26.34;66.70;98442.91;5045394;28;20267;-75
2022/09/28 09:01:47;;;;;;;0.30;0.30;;;;;;;26.51;70.25;98443.69;5036715;28;20756;-75
2022/09/28 09:04:16;;;;;;;0.20;0.20;;;;;;;26.71;66.60;98433.56;5032552;28;20229;-75
2022/09/28 09:07:01;;;;;;;0.17;0.17;;;;;;;26.78;68.38;98424.84;5043866;28;20189;-75
2022/09/28 09:09:43;;;;;;;0.20;0.20;;;;;;;26.77;64.57;98425.00;5041253;28;20236;-75
2022/09/28 09:12:18;;;;;;;0.20;0.20;;;;;;;26.68;64.14;98429.50;5041602;28;20216;-75
2022/09/28 09:15:06;;;;;;;0.20;0.20;;;;;;;26.41;63.90;98422.03;5046181;28;20207;-76
2022/09/28 09:17:44;;;;;;;0.20;0.20;;;;;;;26.39;64.83;98429.28;5040870;28;20201;-76
2022/09/28 09:20:20;;;;;;;0.20;0.20;;;;;;;26.33;62.08;98432.59;5042998;28;20201;-75
2022/09/28 09:22:59;;;;;;;0.30;0.30;;;;;;;26.46;61.22;98440.75;5035936;28;21007;-76
2022/09/28 09:25:28;;;;;;;0.37;0.37;;;;;;;26.54;61.29;98432.81;5045514;28;20197;-75
2022/09/28 09:28:31;;;;;;;0.20;0.20;;;;;;;26.68;63.20;98426.84;5046840;28;20223;-75
2022/09/28 09:31:08;;;;;;;0.20;0.20;;;;;;;26.74;61.55;98423.53;5035992;28;20273;-75
2022/09/28 09:33:52;;;;;;;0.40;0.40;;;;;;;26.81;62.03;98413.19;5046100;28;20269;-75
2022/09/28 09:36:34;;;;;;;0.27;0.27;;;;;;;27.00;61.98;98421.44;5044156;28;20580;-75
2022/09/28 09:39:18;;;;;;;0.20;0.20;;;;;;;27.22;59.01;98422.47;5047306;28;20684;-75
2022/09/28 09:42:01;;;;;;;0.20;0.20;;;;;;;27.45;58.53;98414.59;5037906;28;20197;-73
2022/09/28 09:44:53;;;;;;;0.20;0.20;;;;;;;27.63;56.00;98420.34;5046323;28;20235;-75
2022/09/28 09:47:25;;;;;;;0.20;0.20;;;;;;;27.51;52.87;98416.50;5046476;28;20201;-74
2022/09/28 09:50:00;;;;;;;0.30;0.30;;;;;;;27.60;55.93;98421.53;5042698;28;20204;-74
2022/09/28 09:52:35;;;;;;;0.20;0.20;;;;;;;27.76;54.51;98417.94;5048359;28;20287;-75
2022/09/28 09:55:14;;;;;;;0.20;0.20;;;;;;;27.72;55.90;98418.47;5042635;28;20646;-74
2022/09/28 09:57:45;;;;;;;0.27;0.27;;;;;;;27.81;54.39;98425.31;5044911;28;20204;-74
2022/09/28 10:00:15;;;;;;;0.20;0.20;;;;;;;27.93;53.20;98416.78;5039014;28;20216;-74
2022/09/28 10:02:43;;;;;;;0.10;0.10;;;;;;;28.01;52.20;98424.59;5035529;28;20240;-74
2022/09/28 10:05:20;;;;;;;0.20;0.20;;;;;;;28.10;52.66;98418.28;5041094;28;20217;-74
2022/09/28 10:07:53;;;;;;;0.30;0.30;;;;;;;28.15;51.68;98410.66;5048700;28;20201;-74
2022/09/28 10:10:25;;;;;;;0.20;0.20;;;;;;;27.87;52.42;98411.41;5039940;28;20203;-74
2022/09/28 10:12:52;;;;;;;0.20;0.20;;;;;;;28.04;52.92;98411.09;5046704;28;20245;-75
2022/09/28 10:15:24;;;;;;;0.20;0.20;;;;;;;28.22;54.43;98405.47;5045394;28;20205;-75
2022/09/28 10:17:52;;;;;;;0.20;0.20;;;;;;;28.23;52.37;98406.28;5052225;28;20203;-74
2022/09/28 10:20:24;;;;;;;0.20;0.20;;;;;;;28.28;55.36;98404.75;5048645;28;20197;-74
2022/09/28 10:23:00;;;;;;;0.20;0.20;;;;;;;28.41;51.12;98401.47;5034037;28;20201;-75
2022/09/28 10:25:30;;;;;;;0.30;0.30;;;;;;;28.44;50.00;98393.19;5033659;28;20224;-75
2022/09/28 10:27:59;;;;;;;0.20;0.20;;;;;;;28.48;53.71;98395.28;5032314;28;20677;-75
2022/09/28 10:30:27;;;;;;;0.20;0.20;;;;;;;28.49;51.92;98393.47;5033555;28;20205;-74
2022/09/28 10:32:58;;;;;;;0.20;0.20;;;;;;;28.47;53.75;98384.91;5045798;28;20255;-74
2022/09/28 10:35:27;;;;;;;0.20;0.20;;;;;;;28.45;51.21;98389.56;5034961;28;20712;-74
2022/09/28 10:38:02;;;;;;;0.20;0.20;;;;;;;28.47;51.76;98377.00;5035575;28;20235;-74
2022/09/28 10:40:43;;;;;;;0.20;0.20;;;;;;;28.42;52.46;98384.66;5038977;28;20265;-74
2022/09/28 10:43:21;;;;;;;0.20;0.20;;;;;;;28.52;52.42;98380.72;5045328;28;20279;-75
2022/09/28 10:45:59;;;;;;;0.20;0.20;;;;;;;28.19;52.04;98384.75;5036493;28;20292;-75
2022/09/28 10:48:28;;;;;;;0.30;0.30;;;;;;;28.22;52.20;98380.94;5041347;28;20208;-75
2022/09/28 10:51:03;;;;;;;0.30;0.30;;;;;;;28.25;51.08;98370.84;5041188;28;20197;-75
2022/09/28 10:53:32;;;;;;;0.20;0.20;;;;;;;28.22;52.29;98367.75;5041853;28;20215;-76
2022/09/28 10:56:02;;;;;;;0.20;0.20;;;;;;;28.32;51.77;98373.56;5045540;28;20684;-75
2022/09/28 10:58:36;;;;;;;0.23;0.23;;;;;;;28.39;52.49;98363.94;5037192;28;20197;-75
2022/09/28 11:01:09;;;;;;;0.20;0.20;;;;;;;28.43;53.94;98359.94;5048122;28;20578;-75
2022/09/28 11:03:49;;;;;;;0.20;0.20;;;;;;;28.52;54.11;98349.09;5031612;28;20241;-75
2022/09/28 11:06:24;;;;;;;0.20;0.20;;;;;;;28.68;50.39;98353.34;5041469;28;20228;-75
2022/09/28 11:08:56;;;;;;;0.20;0.20;;;;;;;28.76;50.95;98350.59;5046058;28;20634;-74
2022/09/28 11:11:25;;;;;;;0.20;0.20;;;;;;;28.78;50.29;98353.03;5045818;28;20201;-74
2022/09/28 11:13:56;;;;;;;0.20;0.20;;;;;;;28.77;52.18;98346.94;5038051;28;20668;-74
2022/09/28 11:16:27;;;;;;;0.20;0.20;;;;;;;28.76;49.71;98353.22;5050200;28;20232;-74
2022/09/28 11:18:56;;;;;;;0.20;0.20;;;;;;;28.74;51.66;98342.06;5046178;28;20197;-73
2022/09/28 11:21:27;;;;;;;0.20;0.20;;;;;;;28.77;50.49;98336.41;5050411;28;20223;-73
2022/09/28 11:24:04;;;;;;;0.20;0.20;;;;;;;28.78;49.26;98337.22;5043180;28;20253;-73
2022/09/28 11:26:39;;;;;;;0.17;0.17;;;;;;;28.41;48.53;98332.91;5036941;28;20565;-72
2022/09/28 11:29:18;;;;;;;0.23;0.23;;;;;;;28.36;47.29;98316.84;5031738;28;20197;-74
2022/09/28 11:31:47;;;;;;;0.20;0.20;;;;;;;28.50;48.26;98318.59;5032156;28;20204;-73
2022/09/28 11:34:22;;;;;;;0.23;0.23;;;;;;;28.45;46.54;98321.81;5035784;28;20210;-74
2022/09/28 11:37:20;;;;;;;0.13;0.13;;;;;;;28.56;48.46;98313.41;5039336;28;20196;-74
2022/09/28 11:40:01;;;;;;;0.20;0.20;;;;;;;28.65;48.10;98312.34;5041278;28;20201;-74
2022/09/28 11:42:43;;;;;;;0.20;0.20;;;;;;;28.65;47.96;98307.06;5045032;28;20204;-74
2022/09/28 11:45:32;;;;;;;0.20;0.20;;;;;;;28.70;48.21;98305.69;5045741;28;20236;-74
2022/09/28 11:48:02;;;;;;;0.20;0.20;;;;;;;28.75;49.58;98312.03;5046091;28;20211;-74
2022/09/28 11:50:41;;;;;;;0.20;0.20;;;;;;;28.75;46.06;98305.94;5031153;28;20748;-74
2022/09/28 11:53:18;;;;;;;0.10;0.10;;;;;;;28.66;46.22;98307.88;5042334;28;20203;-74